Time;durP1;ratioP1;P1;durP2;ratioP2;P2;SDS_P1;SDS_P2;PMS_P1;PMS_P2;Temp;Humidity;BMP_temperature;BMP_pressure;BME280_temperature;BME280_humidity;BME280_pressure;Samples;Min_cycle;Max_cycle;Signal;HPM_P1;HPM_P2
2024/01/29 00:02:02;;;;;;;14.38;4.47;;;;;;;;;;4982266;28;20394;-81
2024/01/29 00:04:28;;;;;;;9.32;3.95;;;;;;;;;;4972510;28;20038;-81
2024/01/29 00:06:53;;;;;;;9.70;4.07;;;;;;;;;;4970796;28;20038;-81
2024/01/29 00:09:19;;;;;;;11.07;3.72;;;;;;;;;;4989581;28;20044;-80
2024/01/29 00:11:44;;;;;;;9.52;3.90;;;;;;;;;;4986928;28;20034;-81
2024/01/29 00:14:10;;;;;;;10.73;4.35;;;;;;;;;;4976960;28;20564;-79
2024/01/29 00:16:35;;;;;;;12.60;5.60;;;;;;;;;;4985548;28;20046;-80
2024/01/29 00:19:01;;;;;;;10.13;4.13;;;;;;;;;;4988325;28;20564;-80
2024/01/29 00:21:29;;;;;;;9.95;3.85;;;;;;;;;;4988974;28;20036;-81
2024/01/29 00:23:56;;;;;;;9.63;4.35;;;;;;;;;;4988455;28;20100;-79
2024/01/29 00:26:21;;;;;;;10.97;4.43;;;;;;;;;;4988904;28;20041;-81
2024/01/29 00:28:47;;;;;;;11.73;4.75;;;;;;;;;;4986687;28;20471;-81
2024/01/29 00:31:14;;;;;;;13.02;4.35;;;;;;;;;;4986749;28;20065;-80
2024/01/29 00:33:59;;;;;;;10.50;3.97;;;;;;;;;;4986692;28;20049;-81
2024/01/29 00:36:25;;;;;;;8.50;4.15;;;;;;;;;;4927613;28;20412;-81
2024/01/29 00:38:50;;;;;;;10.73;4.45;;;;;;;;;;4915899;29;20040;-81
2024/01/29 00:41:16;;;;;;;9.07;4.40;;;;;;;;;;4945043;28;20086;-81
2024/01/29 00:43:41;;;;;;;12.95;4.20;;;;;;;;;;4931407;29;20091;-81
2024/01/29 00:46:07;;;;;;;10.80;4.28;;;;;;;;;;4944526;28;20138;-79
2024/01/29 00:48:32;;;;;;;10.63;4.25;;;;;;;;;;4947278;28;20083;-81
2024/01/29 00:50:57;;;;;;;11.35;4.60;;;;;;;;;;4942056;28;20146;-81
2024/01/29 00:53:23;;;;;;;9.80;4.28;;;;;;;;;;4948219;28;20116;-80
2024/01/29 00:55:49;;;;;;;11.18;4.38;;;;;;;;;;4936674;28;20127;-80
2024/01/29 00:58:14;;;;;;;8.60;4.00;;;;;;;;;;4934332;28;20046;-81
2024/01/29 01:00:41;;;;;;;10.48;4.35;;;;;;;;;;4947067;28;20039;-81
2024/01/29 01:03:07;;;;;;;13.05;4.18;;;;;;;;;;4919638;28;20066;-81
2024/01/29 01:05:33;;;;;;;11.65;4.07;;;;;;;;;;4906889;29;20032;-81
2024/01/29 01:08:00;;;;;;;11.63;4.22;;;;;;;;;;4922779;29;20043;-81
2024/01/29 01:10:46;;;;;;;12.25;4.47;;;;;;;;;;4907508;29;20044;-81
2024/01/29 01:13:11;;;;;;;9.88;4.63;;;;;;;;;;4881715;29;20043;-79
2024/01/29 01:15:37;;;;;;;10.63;5.13;;;;;;;;;;4907306;29;20126;-81
2024/01/29 01:18:03;;;;;;;11.05;4.53;;;;;;;;;;4888657;29;20412;-81
2024/01/29 01:20:29;;;;;;;12.77;4.47;;;;;;;;;;4889934;29;20111;-81
2024/01/29 01:22:54;;;;;;;12.75;4.53;;;;;;;;;;4902354;29;20063;-81
2024/01/29 01:25:20;;;;;;;14.05;4.88;;;;;;;;;;4918408;29;20468;-81
2024/01/29 01:27:45;;;;;;;12.88;4.45;;;;;;;;;;4886807;29;20444;-81
2024/01/29 01:30:11;;;;;;;10.52;4.30;;;;;;;;;;4904710;29;20506;-80
2024/01/29 01:32:37;;;;;;;12.30;4.88;;;;;;;;;;4904503;29;20051;-81
2024/01/29 01:35:02;;;;;;;12.27;5.18;;;;;;;;;;4908794;29;20039;-81
2024/01/29 01:37:28;;;;;;;10.60;4.80;;;;;;;;;;4903783;29;20092;-81
2024/01/29 01:39:53;;;;;;;8.98;4.68;;;;;;;;;;4884102;29;20086;-81
2024/01/29 01:42:19;;;;;;;10.05;4.60;;;;;;;;;;4890500;29;20048;-79
2024/01/29 01:44:48;;;;;;;10.55;4.38;;;;;;;;;;4918038;29;20040;-80
2024/01/29 01:47:17;;;;;;;12.45;4.78;;;;;;;;;;4919699;29;20127;-80
2024/01/29 01:49:43;;;;;;;11.23;5.05;;;;;;;;;;4927374;28;20457;-81
2024/01/29 01:52:08;;;;;;;9.40;4.43;;;;;;;;;;4976227;28;20101;-81
2024/01/29 01:54:34;;;;;;;11.70;4.82;;;;;;;;;;4990811;28;20118;-79
2024/01/29 01:57:00;;;;;;;10.43;4.80;;;;;;;;;;5004512;28;20061;-81
2024/01/29 01:59:25;;;;;;;10.05;4.50;;;;;;;;;;4953965;28;20117;-81
2024/01/29 02:01:52;;;;;;;11.32;4.90;;;;;;;;;;5003018;28;20129;-81
2024/01/29 02:04:20;;;;;;;11.95;4.68;;;;;;;;;;5004744;28;20477;-81
2024/01/29 02:06:46;;;;;;;9.57;5.00;;;;;;;;;;4970511;28;20513;-81
2024/01/29 02:09:12;;;;;;;8.73;4.38;;;;;;;;;;4955957;28;20038;-81
2024/01/29 02:11:40;;;;;;;10.15;4.57;;;;;;;;;;4985984;28;20042;-83
2024/01/29 02:14:05;;;;;;;11.77;4.95;;;;;;;;;;4973568;28;20066;-80
2024/01/29 02:16:31;;;;;;;13.73;5.53;;;;;;;;;;4972175;28;20521;-80
2024/01/29 02:18:56;;;;;;;11.30;5.03;;;;;;;;;;4970413;28;20038;-81
2024/01/29 02:21:22;;;;;;;10.85;5.15;;;;;;;;;;4985602;28;20034;-82
2024/01/29 02:23:47;;;;;;;12.07;5.32;;;;;;;;;;4961496;28;20046;-80
2024/01/29 02:26:13;;;;;;;8.85;4.68;;;;;;;;;;4984912;28;20034;-81
2024/01/29 02:28:39;;;;;;;11.68;4.95;;;;;;;;;;4976506;28;20137;-81
2024/01/29 02:31:04;;;;;;;12.45;5.13;;;;;;;;;;4969347;28;20061;-80
2024/01/29 02:33:30;;;;;;;10.70;4.80;;;;;;;;;;4986166;28;20481;-82
2024/01/29 02:35:56;;;;;;;14.57;5.43;;;;;;;;;;4967054;28;20441;-82
2024/01/29 02:38:21;;;;;;;13.27;5.15;;;;;;;;;;4986254;28;20039;-81
2024/01/29 02:40:47;;;;;;;12.27;5.47;;;;;;;;;;4985885;28;20084;-82
2024/01/29 02:43:13;;;;;;;11.82;5.45;;;;;;;;;;4961147;28;20081;-82
2024/01/29 02:45:38;;;;;;;11.70;5.00;;;;;;;;;;4993486;28;20079;-81
2024/01/29 02:48:05;;;;;;;11.48;5.00;;;;;;;;;;4966183;28;20057;-81
2024/01/29 02:50:35;;;;;;;12.05;5.10;;;;;;;;;;4958212;28;20041;-80
2024/01/29 02:53:01;;;;;;;10.68;4.78;;;;;;;;;;4979313;28;20042;-80
2024/01/29 02:55:27;;;;;;;12.95;5.47;;;;;;;;;;4983715;28;20038;-80
2024/01/29 02:57:52;;;;;;;14.15;5.18;;;;;;;;;;4970410;28;20518;-80
2024/01/29 03:00:18;;;;;;;10.13;4.72;;;;;;;;;;4987327;28;20431;-81
2024/01/29 03:02:43;;;;;;;11.00;5.18;;;;;;;;;;4959866;28;20088;-80
2024/01/29 03:05:09;;;;;;;11.13;5.15;;;;;;;;;;4959941;28;20038;-81
2024/01/29 03:07:34;;;;;;;13.35;5.47;;;;;;;;;;4987372;28;20564;-81
2024/01/29 03:09:59;;;;;;;11.35;4.88;;;;;;;;;;4983848;28;20038;-82
2024/01/29 03:12:25;;;;;;;13.85;4.75;;;;;;;;;;4985388;28;20038;-82
2024/01/29 03:14:50;;;;;;;11.80;4.45;;;;;;;;;;4968476;28;20109;-82
2024/01/29 03:17:16;;;;;;;11.07;5.18;;;;;;;;;;4981510;28;20050;-81
2024/01/29 03:19:41;;;;;;;9.73;4.60;;;;;;;;;;4968049;28;20437;-81
2024/01/29 03:22:07;;;;;;;9.98;5.20;;;;;;;;;;4985294;28;20042;-82
2024/01/29 03:24:32;;;;;;;13.52;5.47;;;;;;;;;;4977843;28;20937;-81
2024/01/29 03:26:57;;;;;;;13.40;5.68;;;;;;;;;;4972631;28;20061;-81
2024/01/29 03:29:23;;;;;;;12.93;5.40;;;;;;;;;;4989667;28;20046;-81
2024/01/29 03:31:48;;;;;;;10.68;4.80;;;;;;;;;;4987918;28;20034;-81
2024/01/29 03:34:16;;;;;;;15.38;5.53;;;;;;;;;;4989481;28;20030;-81
2024/01/29 03:36:46;;;;;;;11.20;5.72;;;;;;;;;;4987592;28;20114;-81
2024/01/29 03:39:15;;;;;;;14.45;5.63;;;;;;;;;;4981431;28;20449;-81
2024/01/29 03:41:40;;;;;;;14.13;4.88;;;;;;;;;;4971924;28;20113;-81
2024/01/29 03:44:06;;;;;;;13.50;5.28;;;;;;;;;;4967347;28;20109;-81
2024/01/29 03:46:31;;;;;;;13.35;5.05;;;;;;;;;;4972948;28;20457;-81
2024/01/29 03:48:57;;;;;;;11.48;5.30;;;;;;;;;;4962989;28;20038;-81
2024/01/29 03:51:22;;;;;;;9.75;4.95;;;;;;;;;;4975010;28;20038;-80
2024/01/29 03:53:47;;;;;;;11.13;5.30;;;;;;;;;;4990552;28;20042;-81
2024/01/29 03:56:15;;;;;;;13.25;5.90;;;;;;;;;;4981021;28;20129;-81
2024/01/29 03:58:41;;;;;;;11.70;5.57;;;;;;;;;;4979502;28;20042;-81
2024/01/29 04:01:06;;;;;;;11.27;4.80;;;;;;;;;;4986861;28;20455;-81
2024/01/29 04:03:32;;;;;;;11.43;5.45;;;;;;;;;;4989830;28;20113;-81
2024/01/29 04:05:57;;;;;;;13.82;5.95;;;;;;;;;;4986753;28;20073;-81
2024/01/29 04:08:23;;;;;;;14.52;5.88;;;;;;;;;;4977001;28;20058;-81
2024/01/29 04:10:48;;;;;;;11.85;5.70;;;;;;;;;;4970700;28;20049;-81
2024/01/29 04:13:13;;;;;;;14.02;5.20;;;;;;;;;;4972846;28;20434;-81
2024/01/29 04:15:39;;;;;;;11.35;5.28;;;;;;;;;;4987083;28;20125;-80
2024/01/29 04:18:04;;;;;;;12.10;6.00;;;;;;;;;;4991226;28;20040;-79
2024/01/29 04:20:30;;;;;;;12.82;5.25;;;;;;;;;;4972225;28;20519;-80
2024/01/29 04:22:55;;;;;;;14.32;6.03;;;;;;;;;;4965150;28;20392;-80
2024/01/29 04:25:21;;;;;;;11.38;5.70;;;;;;;;;;4974042;28;20039;-82
2024/01/29 04:27:46;;;;;;;13.10;5.70;;;;;;;;;;4987254;28;20073;-80
2024/01/29 04:30:12;;;;;;;12.68;5.75;;;;;;;;;;5008031;28;20107;-80
2024/01/29 04:32:38;;;;;;;17.27;6.10;;;;;;;;;;4988609;28;20042;-81
2024/01/29 04:35:04;;;;;;;10.48;6.00;;;;;;;;;;4989359;28;20058;-79
2024/01/29 04:37:29;;;;;;;12.25;5.65;;;;;;;;;;4989829;28;20142;-80
2024/01/29 04:39:57;;;;;;;12.10;5.55;;;;;;;;;;5005832;28;20046;-81
2024/01/29 04:42:25;;;;;;;16.95;6.15;;;;;;;;;;5003164;28;20038;-81
2024/01/29 04:44:51;;;;;;;12.40;5.40;;;;;;;;;;4981931;28;20034;-80
2024/01/29 04:47:16;;;;;;;17.50;6.22;;;;;;;;;;4957747;28;20030;-80
2024/01/29 04:49:42;;;;;;;13.88;6.05;;;;;;;;;;5007497;28;20041;-82
2024/01/29 04:52:07;;;;;;;13.73;5.68;;;;;;;;;;4997368;28;20101;-80
2024/01/29 04:54:32;;;;;;;15.90;6.82;;;;;;;;;;4988473;28;20081;-80
2024/01/29 04:56:58;;;;;;;12.77;5.70;;;;;;;;;;4987372;28;20044;-81
2024/01/29 04:59:23;;;;;;;14.27;5.80;;;;;;;;;;4978559;28;20033;-80
2024/01/29 05:01:48;;;;;;;13.20;6.03;;;;;;;;;;4979802;28;20472;-81
2024/01/29 05:04:14;;;;;;;12.05;6.30;;;;;;;;;;4993986;28;20117;-80
2024/01/29 05:06:39;;;;;;;11.75;5.90;;;;;;;;;;4979407;28;20050;-80
2024/01/29 05:09:09;;;;;;;17.05;6.25;;;;;;;;;;4973514;28;20054;-80
2024/01/29 05:11:34;;;;;;;14.85;6.50;;;;;;;;;;4971238;28;20042;-80
2024/01/29 05:13:59;;;;;;;14.40;6.05;;;;;;;;;;4969044;28;20145;-79
2024/01/29 05:16:26;;;;;;;12.23;5.10;;;;;;;;;;4989588;28;20120;-81
2024/01/29 05:18:51;;;;;;;13.00;5.85;;;;;;;;;;4987269;28;20069;-79
2024/01/29 05:21:17;;;;;;;15.05;5.90;;;;;;;;;;4988467;28;20070;-81
2024/01/29 05:23:45;;;;;;;11.85;5.35;;;;;;;;;;4985661;28;20046;-80
2024/01/29 05:26:10;;;;;;;12.68;5.65;;;;;;;;;;4969229;28;20026;-80
2024/01/29 05:28:36;;;;;;;12.30;6.00;;;;;;;;;;4985142;28;20065;-79
2024/01/29 05:31:01;;;;;;;11.60;5.55;;;;;;;;;;4970774;28;20367;-81
2024/01/29 05:33:29;;;;;;;15.75;6.05;;;;;;;;;;4986799;28;20031;-78
2024/01/29 05:35:57;;;;;;;14.77;6.13;;;;;;;;;;4987707;28;20490;-81
2024/01/29 05:38:24;;;;;;;14.73;5.80;;;;;;;;;;4970450;28;20042;-81
2024/01/29 05:40:49;;;;;;;14.95;6.15;;;;;;;;;;4985220;28;20624;-80
2024/01/29 05:43:15;;;;;;;16.23;6.18;;;;;;;;;;4961041;28;20094;-80
2024/01/29 05:45:40;;;;;;;13.23;6.03;;;;;;;;;;4983145;28;20533;-80
2024/01/29 05:48:07;;;;;;;16.42;6.07;;;;;;;;;;4971025;28;20534;-81
2024/01/29 05:50:32;;;;;;;11.30;5.82;;;;;;;;;;4986079;28;20572;-80
2024/01/29 05:53:01;;;;;;;12.50;5.70;;;;;;;;;;4969293;28;20042;-81
2024/01/29 05:55:26;;;;;;;12.15;6.00;;;;;;;;;;4967698;28;20046;-80
2024/01/29 05:57:52;;;;;;;11.50;5.38;;;;;;;;;;4983544;28;20105;-80
2024/01/29 06:00:18;;;;;;;16.48;6.25;;;;;;;;;;4985257;28;20498;-80
2024/01/29 06:02:45;;;;;;;14.25;6.38;;;;;;;;;;4986423;28;20113;-80
2024/01/29 06:05:11;;;;;;;12.35;5.63;;;;;;;;;;4970234;28;20042;-80
2024/01/29 06:07:38;;;;;;;18.77;6.35;;;;;;;;;;4986412;28;20042;-80
2024/01/29 06:10:04;;;;;;;12.43;6.33;;;;;;;;;;4971724;28;20372;-80
2024/01/29 06:12:29;;;;;;;18.90;5.90;;;;;;;;;;4957295;28;20327;-81
2024/01/29 06:14:55;;;;;;;12.70;6.22;;;;;;;;;;4975946;28;20069;-82
2024/01/29 06:17:20;;;;;;;15.98;6.75;;;;;;;;;;4986251;28;20042;-81
2024/01/29 06:19:45;;;;;;;16.27;5.90;;;;;;;;;;4964693;28;20069;-81
2024/01/29 06:22:11;;;;;;;16.63;6.03;;;;;;;;;;5002812;28;20375;-81
2024/01/29 06:24:36;;;;;;;12.25;5.65;;;;;;;;;;4956676;28;20049;-82
2024/01/29 06:27:02;;;;;;;15.35;5.95;;;;;;;;;;4964115;28;20030;-81
2024/01/29 06:29:27;;;;;;;15.38;6.05;;;;;;;;;;4984200;28;20422;-82
2024/01/29 06:31:53;;;;;;;13.30;6.32;;;;;;;;;;4985166;28;20053;-82
2024/01/29 06:34:18;;;;;;;14.43;6.03;;;;;;;;;;4985437;28;20043;-82
2024/01/29 06:36:47;;;;;;;13.30;5.60;;;;;;;;;;4973601;28;20034;-80
2024/01/29 06:39:12;;;;;;;14.43;6.15;;;;;;;;;;4969032;28;20168;-80
2024/01/29 06:41:37;;;;;;;15.40;6.40;;;;;;;;;;4984674;28;20114;-81
2024/01/29 06:44:03;;;;;;;13.90;6.40;;;;;;;;;;4987602;28;20049;-80
2024/01/29 06:46:28;;;;;;;13.60;6.30;;;;;;;;;;4979792;28;20403;-81
2024/01/29 06:48:54;;;;;;;15.40;5.90;;;;;;;;;;4986546;28;20046;-82
2024/01/29 06:51:27;;;;;;;15.30;7.22;;;;;;;;;;4985063;28;20026;-81
2024/01/29 06:53:52;;;;;;;15.00;7.35;;;;;;;;;;4977442;28;20090;-82
2024/01/29 06:56:18;;;;;;;14.30;6.07;;;;;;;;;;4983004;28;20554;-81
2024/01/29 06:58:43;;;;;;;13.25;6.60;;;;;;;;;;4968763;28;20091;-81
2024/01/29 07:01:08;;;;;;;14.43;6.10;;;;;;;;;;4985834;28;20533;-82
2024/01/29 07:03:34;;;;;;;15.02;6.10;;;;;;;;;;4978567;28;20616;-81
2024/01/29 07:05:59;;;;;;;12.75;6.53;;;;;;;;;;4987035;28;20720;-80
2024/01/29 07:08:25;;;;;;;12.95;6.10;;;;;;;;;;4981618;28;20677;-81
2024/01/29 07:10:51;;;;;;;13.15;6.18;;;;;;;;;;4971931;28;20096;-81
2024/01/29 07:13:16;;;;;;;15.15;6.10;;;;;;;;;;4972802;28;20038;-79
2024/01/29 07:15:42;;;;;;;13.48;5.70;;;;;;;;;;4959267;28;20042;-79
2024/01/29 07:18:08;;;;;;;13.70;6.18;;;;;;;;;;4971208;28;20052;-80
2024/01/29 07:20:45;;;;;;;11.35;5.68;;;;;;;;;;4981592;28;20101;-79
2024/01/29 07:23:10;;;;;;;11.85;5.72;;;;;;;;;;4971254;28;20371;-80
2024/01/29 07:25:38;;;;;;;13.85;5.47;;;;;;;;;;4978618;28;20041;-80
2024/01/29 07:28:04;;;;;;;9.38;5.30;;;;;;;;;;4980750;28;20034;-81
2024/01/29 07:30:30;;;;;;;9.45;4.93;;;;;;;;;;4986798;28;20042;-79
2024/01/29 07:32:57;;;;;;;12.73;5.18;;;;;;;;;;4990108;28;20044;-80
2024/01/29 07:35:22;;;;;;;12.20;5.22;;;;;;;;;;4988896;28;20042;-80
2024/01/29 07:37:50;;;;;;;16.27;5.57;;;;;;;;;;4990002;28;20505;-79
2024/01/29 07:40:17;;;;;;;11.80;5.22;;;;;;;;;;4987699;28;20490;-80
2024/01/29 07:42:42;;;;;;;10.88;5.03;;;;;;;;;;4988030;28;20045;-80
2024/01/29 07:45:08;;;;;;;11.07;4.85;;;;;;;;;;4975059;28;20042;-80
2024/01/29 07:47:33;;;;;;;15.80;5.85;;;;;;;;;;4983830;28;20042;-80
2024/01/29 07:49:59;;;;;;;11.50;5.40;;;;;;;;;;4971737;28;20031;-79
2024/01/29 07:52:25;;;;;;;11.40;5.70;;;;;;;;;;4989752;28;21579;-80
2024/01/29 07:54:50;;;;;;;13.73;5.22;;;;;;;;;;4971911;28;20120;-81
2024/01/29 07:57:15;;;;;;;14.32;5.15;;;;;;;;;;4978996;28;20041;-82
2024/01/29 07:59:41;;;;;;;15.77;5.28;;;;;;;;;;4986106;28;20046;-81
2024/01/29 08:02:07;;;;;;;10.65;4.82;;;;;;;;;;4988625;28;20041;-81
2024/01/29 08:04:35;;;;;;;10.60;4.85;;;;;;;;;;4988021;28;20099;-81
2024/01/29 08:07:01;;;;;;;11.18;4.97;;;;;;;;;;4986267;28;20054;-81
2024/01/29 08:09:26;;;;;;;13.32;5.13;;;;;;;;;;4988320;28;20034;-81
2024/01/29 08:11:54;;;;;;;11.98;5.05;;;;;;;;;;4968512;28;20432;-82
2024/01/29 08:14:19;;;;;;;;;;;;;;;;;;4983177;28;20042;-81
2024/01/29 08:16:45;;;;;;;10.50;4.55;;;;;;;;;;4971510;28;20275;-80
2024/01/29 08:19:10;;;;;;;11.20;4.65;;;;;;;;;;4990332;28;20038;-82
2024/01/29 08:21:37;;;;;;;13.75;4.88;;;;;;;;;;4971441;28;20064;-81
2024/01/29 08:24:03;;;;;;;11.32;4.80;;;;;;;;;;4979859;28;20041;-81
2024/01/29 08:26:29;;;;;;;9.02;4.80;;;;;;;;;;4987111;28;20046;-81
2024/01/29 08:28:54;;;;;;;10.23;4.07;;;;;;;;;;4986912;28;20050;-82
2024/01/29 08:31:20;;;;;;;12.63;4.55;;;;;;;;;;4987703;28;20077;-81
2024/01/29 08:33:46;;;;;;;12.40;4.20;;;;;;;;;;4987546;28;20074;-81
2024/01/29 08:36:12;;;;;;;12.52;4.90;;;;;;;;;;4986340;28;20462;-80
2024/01/29 08:38:37;;;;;;;12.50;4.65;;;;;;;;;;4982507;28;20165;-80
2024/01/29 08:41:03;;;;;;;9.88;4.10;;;;;;;;;;4987513;28;20125;-81
2024/01/29 08:43:30;;;;;;;11.05;4.45;;;;;;;;;;4972873;28;20042;-80
2024/01/29 08:45:56;;;;;;;10.43;4.40;;;;;;;;;;4970867;28;20042;-82
2024/01/29 08:48:21;;;;;;;9.70;4.43;;;;;;;;;;4975446;28;20091;-81
2024/01/29 08:50:47;;;;;;;10.13;4.28;;;;;;;;;;4974339;28;20510;-80
2024/01/29 08:53:13;;;;;;;10.27;4.28;;;;;;;;;;4958930;28;20045;-80
2024/01/29 08:55:38;;;;;;;8.07;4.28;;;;;;;;;;5003215;28;20045;-81
2024/01/29 08:58:06;;;;;;;9.73;4.07;;;;;;;;;;4966696;28;20368;-82
2024/01/29 09:00:32;;;;;;;7.75;3.80;;;;;;;;;;4964552;28;20526;-80
2024/01/29 09:02:57;;;;;;;8.25;4.13;;;;;;;;;;4956852;28;20397;-81
2024/01/29 09:05:23;;;;;;;10.50;3.90;;;;;;;;;;4963414;28;20049;-82
2024/01/29 09:07:48;;;;;;;8.60;3.58;;;;;;;;;;4988784;28;20516;-80
2024/01/29 09:10:14;;;;;;;8.82;3.80;;;;;;;;;;4986654;28;20030;-81
2024/01/29 09:12:39;;;;;;;9.80;4.00;;;;;;;;;;4955246;28;20041;-81
2024/01/29 09:15:05;;;;;;;7.90;4.15;;;;;;;;;;5008368;28;20036;-80
2024/01/29 09:17:31;;;;;;;9.50;4.32;;;;;;;;;;4960071;28;20453;-81
2024/01/29 09:19:57;;;;;;;8.52;3.80;;;;;;;;;;4952065;28;20157;-81
2024/01/29 09:22:23;;;;;;;8.55;3.85;;;;;;;;;;4957626;28;20513;-81
2024/01/29 09:24:48;;;;;;;7.20;3.72;;;;;;;;;;4974306;28;20042;-81
2024/01/29 09:27:14;;;;;;;7.85;3.45;;;;;;;;;;4979393;28;20041;-80
2024/01/29 09:29:42;;;;;;;9.93;3.92;;;;;;;;;;4986174;28;20061;-80
2024/01/29 09:32:08;;;;;;;9.48;3.80;;;;;;;;;;4988335;28;20394;-82
2024/01/29 09:34:34;;;;;;;7.47;3.35;;;;;;;;;;4986738;28;20038;-81
2024/01/29 09:36:59;;;;;;;8.48;3.60;;;;;;;;;;4975790;28;20030;-79
2024/01/29 09:39:25;;;;;;;7.85;3.60;;;;;;;;;;4986951;28;20510;-80
2024/01/29 09:41:52;;;;;;;10.82;3.80;;;;;;;;;;4970926;28;20376;-81
2024/01/29 09:44:20;;;;;;;11.07;3.73;;;;;;;;;;4979032;28;20060;-81
2024/01/29 09:46:49;;;;;;;6.78;3.42;;;;;;;;;;4954747;28;20289;-80
2024/01/29 09:49:15;;;;;;;6.82;3.50;;;;;;;;;;4964536;28;20045;-81
2024/01/29 09:51:43;;;;;;;8.00;3.50;;;;;;;;;;4950291;28;20507;-82
2024/01/29 09:54:09;;;;;;;7.78;3.72;;;;;;;;;;4964863;28;20052;-81
2024/01/29 09:56:34;;;;;;;7.25;3.67;;;;;;;;;;4987943;28;20042;-81
2024/01/29 09:59:00;;;;;;;7.68;3.53;;;;;;;;;;4969767;28;20062;-81
2024/01/29 10:01:26;;;;;;;8.82;3.35;;;;;;;;;;4986081;28;20034;-81
2024/01/29 10:03:57;;;;;;;7.43;3.10;;;;;;;;;;4970956;28;20438;-82
2024/01/29 10:06:23;;;;;;;9.02;3.45;;;;;;;;;;4987009;28;20063;-81
2024/01/29 10:08:51;;;;;;;7.63;3.60;;;;;;;;;;4961038;28;20450;-81
2024/01/29 10:11:19;;;;;;;8.77;3.10;;;;;;;;;;4977127;28;20034;-81
2024/01/29 10:13:47;;;;;;;7.10;3.15;;;;;;;;;;4962629;28;20509;-81
2024/01/29 10:16:12;;;;;;;6.38;3.20;;;;;;;;;;4949867;28;20050;-81
2024/01/29 10:18:38;;;;;;;9.27;3.45;;;;;;;;;;4962247;28;20068;-81
2024/01/29 10:21:05;;;;;;;8.63;4.05;;;;;;;;;;4965485;28;20037;-81
2024/01/29 10:23:35;;;;;;;6.80;3.10;;;;;;;;;;4983233;28;20379;-82
2024/01/29 10:26:02;;;;;;;6.30;2.90;;;;;;;;;;4974145;28;20070;-84
2024/01/29 10:28:28;;;;;;;7.50;3.40;;;;;;;;;;4972517;28;20077;-83
2024/01/29 10:30:54;;;;;;;7.63;2.97;;;;;;;;;;4953530;28;20079;-81
2024/01/29 10:33:21;;;;;;;8.25;3.00;;;;;;;;;;4951011;28;20041;-82
2024/01/29 10:35:47;;;;;;;6.63;2.90;;;;;;;;;;4952141;28;20055;-85
2024/01/29 10:38:15;;;;;;;9.18;3.40;;;;;;;;;;4939029;28;20063;-83
2024/01/29 10:40:43;;;;;;;7.70;2.90;;;;;;;;;;4947621;28;20562;-81
2024/01/29 10:43:18;;;;;;;6.18;2.97;;;;;;;;;;4964159;28;20058;-81
2024/01/29 10:45:46;;;;;;;6.75;3.00;;;;;;;;;;4946057;28;20388;-82
2024/01/29 10:48:22;;;;;;;7.60;3.10;;;;;;;;;;4931231;28;20079;-82
2024/01/29 10:50:49;;;;;;;8.15;2.88;;;;;;;;;;4946696;28;20043;-81
2024/01/29 10:53:18;;;;;;;7.93;3.03;;;;;;;;;;4946174;28;20050;-81
2024/01/29 10:55:44;;;;;;;7.05;2.80;;;;;;;;;;4961307;28;20106;-82
2024/01/29 10:58:15;;;;;;;9.25;3.25;;;;;;;;;;4946991;28;20043;-83
2024/01/29 11:00:42;;;;;;;5.45;2.63;;;;;;;;;;4960494;28;20074;-82
2024/01/29 11:03:10;;;;;;;6.18;2.83;;;;;;;;;;4931641;28;20055;-83
2024/01/29 11:05:37;;;;;;;6.75;3.00;;;;;;;;;;4932227;29;20074;-83
2024/01/29 11:08:04;;;;;;;6.95;2.75;;;;;;;;;;4987351;28;20331;-83
2024/01/29 11:10:31;;;;;;;5.25;2.50;;;;;;;;;;4968244;28;20043;-82
2024/01/29 11:12:57;;;;;;;6.10;2.57;;;;;;;;;;4986774;28;20037;-81
2024/01/29 11:15:23;;;;;;;6.18;2.60;;;;;;;;;;4975171;28;20282;-82
2024/01/29 11:17:49;;;;;;;8.98;4.13;;;;;;;;;;4967677;28;20085;-82
2024/01/29 11:20:16;;;;;;;6.72;2.63;;;;;;;;;;4973654;28;20073;-82
2024/01/29 11:22:51;;;;;;;7.13;2.63;;;;;;;;;;4986760;28;20461;-83
2024/01/29 11:25:18;;;;;;;6.43;2.60;;;;;;;;;;4984958;28;20037;-83
2024/01/29 11:27:45;;;;;;;6.00;2.70;;;;;;;;;;4986638;28;20434;-83
2024/01/29 11:30:18;;;;;;;5.68;2.45;;;;;;;;;;4976894;28;20122;-82
2024/01/29 11:32:44;;;;;;;5.13;2.22;;;;;;;;;;4962115;28;20043;-83
2024/01/29 11:35:12;;;;;;;4.90;2.03;;;;;;;;;;4971833;28;20494;-83
2024/01/29 11:37:37;;;;;;;5.50;2.20;;;;;;;;;;4970550;28;20104;-84
2024/01/29 11:40:03;;;;;;;7.28;2.33;;;;;;;;;;4962383;28;20039;-83
2024/01/29 11:42:28;;;;;;;4.80;1.90;;;;;;;;;;4937004;28;20047;-83
2024/01/29 11:44:54;;;;;;;6.00;2.42;;;;;;;;;;4956758;28;20066;-83
2024/01/29 11:47:21;;;;;;;5.68;1.90;;;;;;;;;;4955486;28;20038;-84
2024/01/29 11:49:47;;;;;;;8.07;2.20;;;;;;;;;;4968903;28;20502;-83
2024/01/29 11:52:14;;;;;;;4.57;1.95;;;;;;;;;;4968889;28;20042;-83
2024/01/29 11:54:40;;;;;;;5.03;2.10;;;;;;;;;;4970897;28;20097;-83
2024/01/29 11:57:07;;;;;;;4.07;1.90;;;;;;;;;;4940977;28;20278;-83
2024/01/29 11:59:43;;;;;;;4.55;1.90;;;;;;;;;;4949223;28;20035;-82
2024/01/29 12:02:08;;;;;;;4.60;1.98;;;;;;;;;;4925822;28;20136;-83
2024/01/29 12:04:54;;;;;;;3.95;2.00;;;;;;;;;;4962928;28;20567;-84
2024/01/29 12:07:25;;;;;;;5.43;1.83;;;;;;;;;;4893560;29;20044;-83
2024/01/29 12:09:50;;;;;;;4.53;2.00;;;;;;;;;;4887401;29;20478;-82
2024/01/29 12:12:16;;;;;;;4.47;2.20;;;;;;;;;;4874267;29;20151;-82
2024/01/29 12:14:41;;;;;;;4.13;2.00;;;;;;;;;;4895285;29;20059;-81
2024/01/29 12:17:09;;;;;;;4.93;2.05;;;;;;;;;;4894891;29;20079;-82
2024/01/29 12:19:34;;;;;;;5.22;2.25;;;;;;;;;;4887369;29;20045;-82
2024/01/29 12:22:00;;;;;;;4.93;1.95;;;;;;;;;;4897168;29;20507;-83
2024/01/29 12:24:26;;;;;;;6.32;2.17;;;;;;;;;;4913480;29;20123;-82
2024/01/29 12:26:52;;;;;;;5.13;2.10;;;;;;;;;;4876734;29;20048;-82
2024/01/29 12:29:18;;;;;;;5.65;2.08;;;;;;;;;;4894636;29;20043;-81
2024/01/29 12:31:44;;;;;;;5.50;2.08;;;;;;;;;;4910897;29;20087;-81
2024/01/29 12:34:20;;;;;;;6.63;2.08;;;;;;;;;;4926554;29;20040;-83
2024/01/29 12:36:57;;;;;;;5.13;2.40;;;;;;;;;;4912572;29;20538;-82
2024/01/29 12:39:23;;;;;;;6.25;2.15;;;;;;;;;;4899256;29;20071;-82
2024/01/29 12:41:48;;;;;;;5.57;2.20;;;;;;;;;;4898359;29;20040;-81
2024/01/29 12:44:15;;;;;;;7.85;2.42;;;;;;;;;;4912559;28;20030;-82
2024/01/29 12:46:41;;;;;;;6.47;2.25;;;;;;;;;;4947922;28;20494;-82
2024/01/29 12:49:06;;;;;;;5.68;2.22;;;;;;;;;;4948915;28;20039;-84
2024/01/29 12:51:31;;;;;;;4.22;2.03;;;;;;;;;;4951333;28;20408;-82
2024/01/29 12:53:57;;;;;;;5.80;2.28;;;;;;;;;;4946041;28;20415;-82
2024/01/29 12:56:25;;;;;;;6.55;2.15;;;;;;;;;;4930582;28;20039;-82
2024/01/29 12:58:51;;;;;;;5.90;2.08;;;;;;;;;;4950084;28;20118;-81
2024/01/29 13:01:19;;;;;;;5.30;2.05;;;;;;;;;;4948322;28;20122;-82
2024/01/29 13:03:47;;;;;;;5.47;2.03;;;;;;;;;;4948382;28;20131;-82
2024/01/29 13:06:13;;;;;;;6.90;1.92;;;;;;;;;;4935568;28;20043;-81
2024/01/29 13:08:39;;;;;;;5.95;2.20;;;;;;;;;;4944052;28;20570;-82
2024/01/29 13:11:04;;;;;;;6.00;2.20;;;;;;;;;;4929013;28;20060;-81
2024/01/29 13:13:29;;;;;;;6.03;2.05;;;;;;;;;;4946702;28;20086;-82
2024/01/29 13:15:57;;;;;;;5.68;2.13;;;;;;;;;;4937399;28;20038;-82
2024/01/29 13:18:25;;;;;;;3.60;1.90;;;;;;;;;;4940298;28;20047;-82
2024/01/29 13:20:50;;;;;;;5.03;2.13;;;;;;;;;;4934770;28;20089;-83
2024/01/29 13:23:16;;;;;;;4.55;2.00;;;;;;;;;;4954231;28;20043;-82
2024/01/29 13:25:42;;;;;;;5.35;2.20;;;;;;;;;;4953303;28;20043;-82
2024/01/29 13:31:29;;;;;;;5.60;2.20;;;;;;;;;;5103429;23;20555;-82
2024/01/29 13:33:54;;;;;;;6.38;2.13;;;;;;;;;;5024349;28;20049;-83
2024/01/29 13:36:19;;;;;;;5.45;2.10;;;;;;;;;;5016409;28;20490;-82
2024/01/29 13:38:45;;;;;;;4.85;2.20;;;;;;;;;;5013691;28;20034;-82
2024/01/29 13:41:10;;;;;;;5.88;2.40;;;;;;;;;;5016256;28;20121;-82
2024/01/29 13:43:36;;;;;;;6.45;2.03;;;;;;;;;;4995859;28;20071;-82
2024/01/29 13:46:02;;;;;;;5.97;2.25;;;;;;;;;;4984490;28;20034;-81
2024/01/29 13:48:28;;;;;;;9.20;2.90;;;;;;;;;;5015031;28;20042;-82
2024/01/29 13:50:53;;;;;;;4.22;1.98;;;;;;;;;;5013521;28;20120;-82
2024/01/29 13:53:19;;;;;;;6.88;2.30;;;;;;;;;;5001711;28;20038;-83
2024/01/29 13:55:46;;;;;;;6.28;2.10;;;;;;;;;;4998484;28;20512;-82
2024/01/29 13:58:13;;;;;;;5.90;2.30;;;;;;;;;;5029057;28;20385;-83
2024/01/29 14:00:39;;;;;;;;;;;;;;;;;;5005477;28;20094;-83
2024/01/29 14:03:10;;;;;;;5.00;2.20;;;;;;;;;;5018481;28;20365;-83
2024/01/29 14:05:36;;;;;;;5.88;2.50;;;;;;;;;;5000907;28;20497;-81
2024/01/29 14:08:01;;;;;;;5.97;2.20;;;;;;;;;;5034434;28;20033;-83
2024/01/29 14:10:29;;;;;;;5.90;2.05;;;;;;;;;;5020049;28;20041;-83
2024/01/29 14:12:54;;;;;;;6.72;2.25;;;;;;;;;;5036775;28;20045;-83
2024/01/29 14:15:20;;;;;;;7.72;2.30;;;;;;;;;;5001650;28;20037;-82
2024/01/29 14:17:46;;;;;;;5.70;2.25;;;;;;;;;;5001984;28;20123;-83
2024/01/29 14:20:11;;;;;;;8.20;2.80;;;;;;;;;;5010490;28;20037;-82
2024/01/29 14:22:37;;;;;;;4.90;2.50;;;;;;;;;;5004240;28;20080;-82
2024/01/29 14:25:03;;;;;;;8.57;3.20;;;;;;;;;;5005062;28;20041;-83
2024/01/29 14:27:29;;;;;;;7.05;2.55;;;;;;;;;;4981502;28;20029;-82
2024/01/29 14:29:54;;;;;;;5.90;2.25;;;;;;;;;;4995993;28;20422;-81
2024/01/29 14:32:20;;;;;;;5.85;2.58;;;;;;;;;;4991163;28;20043;-83
2024/01/29 14:34:45;;;;;;;5.95;2.33;;;;;;;;;;5001782;28;20478;-82